Time;durP1;ratioP1;P1;durP2;ratioP2;P2;SDS_P1;SDS_P2;PMS_P1;PMS_P2;Temp;Humidity;BMP_temperature;BMP_pressure;BME280_temperature;BME280_humidity;BME280_pressure;Samples;Min_cycle;Max_cycle;Signal;HPM_P1;HPM_P2
2021/08/09 00:01:11;;;;;;;1.35;1.15;;;;;;;;;;4917314;29;20182;-87
2021/08/09 00:03:39;;;;;;;1.17;1.17;;;;;;;;;;4917418;29;20233;-86
2021/08/09 00:06:06;;;;;;;1.95;1.38;;;;;;;;;;4917003;29;20230;-86
2021/08/09 00:08:34;;;;;;;2.67;1.27;;;;;;;;;;4917421;29;20206;-87
2021/08/09 00:11:02;;;;;;;1.70;1.00;;;;;;;;;;4917268;29;20576;-86
2021/08/09 00:13:30;;;;;;;2.30;1.30;;;;;;;;;;4917115;29;20234;-85
2021/08/09 00:15:59;;;;;;;0.93;0.93;;;;;;;;;;4916973;29;20203;-85
2021/08/09 00:18:27;;;;;;;1.85;1.02;;;;;;;;;;4917381;29;20195;-85
2021/08/09 00:20:54;;;;;;;2.05;1.30;;;;;;;;;;4916725;29;20211;-86
2021/08/09 00:23:22;;;;;;;1.50;1.00;;;;;;;;;;4916740;29;20230;-86
2021/08/09 00:25:50;;;;;;;1.27;1.17;;;;;;;;;;4917002;29;20210;-86
2021/08/09 00:28:18;;;;;;;0.93;0.93;;;;;;;;;;4916869;29;20193;-86
2021/08/09 00:30:45;;;;;;;1.17;1.00;;;;;;;;;;4916034;29;20186;-86
2021/08/09 00:33:14;;;;;;;1.27;1.25;;;;;;;;;;4916544;29;20194;-86
2021/08/09 00:35:42;;;;;;;1.05;1.00;;;;;;;;;;4916947;29;20183;-86
2021/08/09 00:38:09;;;;;;;1.95;1.10;;;;;;;;;;4916511;29;20295;-85
2021/08/09 00:40:37;;;;;;;1.58;1.38;;;;;;;;;;4917000;29;20191;-86
2021/08/09 00:45:46;;;;;;;1.00;1.00;;;;;;;;;;4858032;29;20240;-86
2021/08/09 00:48:15;;;;;;;0.93;0.93;;;;;;;;;;4858248;29;20192;-86
2021/08/09 00:50:43;;;;;;;0.82;0.82;;;;;;;;;;4911687;29;20691;-86
2021/08/09 00:53:11;;;;;;;0.80;0.80;;;;;;;;;;4916559;29;20611;-85
2021/08/09 00:55:42;;;;;;;0.93;0.93;;;;;;;;;;4916494;29;20207;-85
2021/08/09 00:58:10;;;;;;;0.80;0.80;;;;;;;;;;4916353;29;20918;-86
2021/08/09 01:00:38;;;;;;;1.13;1.00;;;;;;;;;;4916645;29;20191;-86
2021/08/09 01:03:06;;;;;;;1.10;1.00;;;;;;;;;;4916470;29;20214;-85
2021/08/09 01:05:34;;;;;;;0.95;0.90;;;;;;;;;;4916090;29;20195;-86
2021/08/09 01:08:13;;;;;;;1.35;1.05;;;;;;;;;;4916607;29;20232;-85
2021/08/09 01:10:52;;;;;;;0.98;0.90;;;;;;;;;;4916244;29;20646;-85
2021/08/09 01:13:25;;;;;;;1.35;1.25;;;;;;;;;;4916631;29;20233;-86
2021/08/09 01:15:59;;;;;;;2.22;1.13;;;;;;;;;;4916209;29;20234;-86
2021/08/09 01:18:29;;;;;;;3.75;1.10;;;;;;;;;;4916561;29;20190;-86
2021/08/09 01:21:00;;;;;;;1.17;1.10;;;;;;;;;;4916313;29;20190;-85
2021/08/09 01:23:53;;;;;;;1.15;1.15;;;;;;;;;;4915815;29;20607;-85
2021/08/09 01:26:35;;;;;;;1.90;1.35;;;;;;;;;;4916168;29;20226;-85
2021/08/09 01:29:06;;;;;;;1.77;1.10;;;;;;;;;;4916685;29;20187;-85
2021/08/09 01:31:41;;;;;;;1.67;1.58;;;;;;;;;;4916457;29;20278;-86
2021/08/09 01:34:10;;;;;;;1.58;1.02;;;;;;;;;;4915984;29;20318;-86
2021/08/09 01:36:41;;;;;;;1.17;1.08;;;;;;;;;;4916560;29;20242;-86
2021/08/09 01:39:08;;;;;;;1.35;1.10;;;;;;;;;;4915967;29;20778;-85
2021/08/09 01:41:36;;;;;;;1.40;1.30;;;;;;;;;;4917753;29;20190;-85
2021/08/09 01:44:07;;;;;;;1.50;1.30;;;;;;;;;;4919822;29;20229;-86
2021/08/09 01:46:35;;;;;;;3.05;1.23;;;;;;;;;;4919938;29;20210;-86
2021/08/09 01:49:04;;;;;;;3.00;2.15;;;;;;;;;;4919690;29;20211;-85
2021/08/09 01:51:32;;;;;;;1.08;1.02;;;;;;;;;;4920026;29;20642;-85
2021/08/09 01:54:01;;;;;;;1.73;1.63;;;;;;;;;;4919994;29;20230;-86
2021/08/09 01:56:29;;;;;;;1.30;1.20;;;;;;;;;;4919894;29;20187;-85
2021/08/09 01:58:56;;;;;;;1.00;1.00;;;;;;;;;;4919990;29;20202;-85
2021/08/09 02:01:26;;;;;;;0.90;0.90;;;;;;;;;;4913179;29;20203;-86
2021/08/09 02:03:54;;;;;;;1.50;1.40;;;;;;;;;;4900831;29;20230;-85
2021/08/09 02:06:21;;;;;;;1.10;1.10;;;;;;;;;;4901321;29;20211;-85
2021/08/09 02:08:49;;;;;;;3.10;2.40;;;;;;;;;;4901135;29;20211;-86
2021/08/09 02:11:20;;;;;;;1.23;1.13;;;;;;;;;;4907096;29;20567;-84
2021/08/09 02:13:51;;;;;;;1.27;1.20;;;;;;;;;;4901007;29;20681;-86
2021/08/09 02:16:23;;;;;;;5.07;1.33;;;;;;;;;;4905822;29;20198;-86
2021/08/09 02:18:58;;;;;;;1.27;1.20;;;;;;;;;;4919517;29;20190;-85
2021/08/09 02:21:29;;;;;;;1.40;1.10;;;;;;;;;;4919200;29;20188;-87
2021/08/09 02:24:02;;;;;;;1.25;1.15;;;;;;;;;;4910579;29;20223;-86
2021/08/09 02:26:37;;;;;;;2.08;1.08;;;;;;;;;;4899679;29;20207;-86
2021/08/09 02:29:15;;;;;;;1.20;1.00;;;;;;;;;;4900134;29;20203;-86
2021/08/09 02:31:45;;;;;;;1.40;1.30;;;;;;;;;;4899689;29;20625;-87
2021/08/09 02:34:17;;;;;;;1.00;1.00;;;;;;;;;;4899793;29;20247;-88
2021/08/09 02:36:47;;;;;;;1.45;1.20;;;;;;;;;;4899784;29;20203;-87
2021/08/09 02:39:15;;;;;;;2.38;1.17;;;;;;;;;;4900283;29;20195;-86
2021/08/09 02:41:43;;;;;;;1.77;1.45;;;;;;;;;;4900175;29;20243;-86
2021/08/09 02:44:13;;;;;;;1.50;1.40;;;;;;;;;;4900240;29;20234;-85
2021/08/09 02:46:41;;;;;;;2.00;1.33;;;;;;;;;;4899989;29;20704;-85
2021/08/09 02:49:09;;;;;;;1.83;1.73;;;;;;;;;;4900053;29;20650;-84
2021/08/09 02:51:38;;;;;;;1.50;1.40;;;;;;;;;;4900372;29;20191;-85
2021/08/09 02:54:06;;;;;;;2.55;1.17;;;;;;;;;;4899275;29;20230;-85
2021/08/09 02:56:34;;;;;;;1.75;1.65;;;;;;;;;;4900075;29;20198;-84
2021/08/09 02:59:02;;;;;;;1.20;1.10;;;;;;;;;;4899539;29;20207;-85
2021/08/09 03:01:31;;;;;;;1.00;1.00;;;;;;;;;;4899589;29;20219;-86
2021/08/09 03:04:00;;;;;;;2.60;1.20;;;;;;;;;;4899892;29;20223;-85
2021/08/09 03:06:28;;;;;;;1.10;1.05;;;;;;;;;;4900037;29;20191;-83
2021/08/09 03:08:57;;;;;;;1.35;1.25;;;;;;;;;;4901478;29;20191;-84
2021/08/09 03:11:25;;;;;;;1.65;1.10;;;;;;;;;;4901133;29;20558;-83
2021/08/09 03:13:52;;;;;;;0.98;0.98;;;;;;;;;;4901020;29;20757;-84
2021/08/09 03:16:21;;;;;;;1.48;1.13;;;;;;;;;;4901245;29;20198;-84
2021/08/09 03:18:48;;;;;;;1.38;1.02;;;;;;;;;;4901193;29;20692;-84
2021/08/09 03:21:16;;;;;;;1.10;1.00;;;;;;;;;;4902035;29;20207;-84
2021/08/09 03:23:43;;;;;;;1.20;1.20;;;;;;;;;;4901448;29;20238;-83
2021/08/09 03:26:12;;;;;;;1.23;1.10;;;;;;;;;;4901087;29;20207;-84
2021/08/09 03:28:39;;;;;;;0.90;0.90;;;;;;;;;;4901534;29;20207;-83
2021/08/09 03:31:07;;;;;;;1.30;1.13;;;;;;;;;;4901163;29;20192;-85
2021/08/09 03:33:34;;;;;;;3.13;1.20;;;;;;;;;;4901011;29;20243;-85
2021/08/09 03:36:02;;;;;;;1.10;1.10;;;;;;;;;;4900591;29;20207;-83
2021/08/09 03:38:29;;;;;;;1.63;0.90;;;;;;;;;;4901433;29;20195;-83
2021/08/09 03:40:57;;;;;;;1.50;1.10;;;;;;;;;;4901816;29;20197;-84
2021/08/09 03:43:25;;;;;;;1.52;1.42;;;;;;;;;;4901453;29;20238;-83
2021/08/09 03:45:53;;;;;;;1.17;1.08;;;;;;;;;;4901337;29;20195;-84
2021/08/09 03:48:20;;;;;;;1.35;1.10;;;;;;;;;;4901100;29;20219;-85
2021/08/09 03:50:48;;;;;;;1.83;1.48;;;;;;;;;;4901017;29;20212;-84
2021/08/09 03:53:15;;;;;;;1.10;1.10;;;;;;;;;;4901514;29;20234;-84
2021/08/09 03:55:43;;;;;;;1.40;1.30;;;;;;;;;;4900819;29;20698;-83
2021/08/09 03:58:10;;;;;;;1.27;1.00;;;;;;;;;;4901324;29;20213;-83
2021/08/09 04:00:39;;;;;;;1.48;1.40;;;;;;;;;;4901016;29;20196;-84
2021/08/09 04:03:07;;;;;;;1.35;1.30;;;;;;;;;;4907277;29;20214;-84
2021/08/09 04:05:35;;;;;;;1.30;1.20;;;;;;;;;;4919929;29;20186;-84
2021/08/09 04:08:02;;;;;;;1.73;1.23;;;;;;;;;;4920085;29;20211;-83
2021/08/09 04:10:30;;;;;;;1.00;1.00;;;;;;;;;;4919125;29;20569;-84
2021/08/09 04:12:57;;;;;;;1.20;1.10;;;;;;;;;;4919822;29;20193;-84
2021/08/09 04:15:25;;;;;;;1.70;0.90;;;;;;;;;;4919396;29;20649;-83
2021/08/09 04:17:54;;;;;;;1.77;1.27;;;;;;;;;;4919453;29;20203;-84
2021/08/09 04:20:21;;;;;;;1.23;1.13;;;;;;;;;;4919502;29;20206;-84
2021/08/09 04:22:49;;;;;;;1.23;1.13;;;;;;;;;;4920244;29;20186;-83
2021/08/09 04:25:16;;;;;;;0.90;0.90;;;;;;;;;;4920127;29;20226;-84
2021/08/09 04:27:43;;;;;;;1.23;1.13;;;;;;;;;;4919926;29;20217;-84
2021/08/09 04:30:12;;;;;;;2.88;1.58;;;;;;;;;;4920052;29;20187;-84
2021/08/09 04:32:41;;;;;;;1.85;1.25;;;;;;;;;;4919133;29;20206;-84
2021/08/09 04:35:12;;;;;;;1.30;1.17;;;;;;;;;;4919480;29;20238;-84
2021/08/09 04:37:41;;;;;;;1.98;1.17;;;;;;;;;;4920202;29;20250;-85
2021/08/09 04:40:12;;;;;;;1.00;1.00;;;;;;;;;;4919753;29;20211;-84
2021/08/09 04:42:39;;;;;;;2.58;1.48;;;;;;;;;;4919980;29;20194;-83
2021/08/09 04:45:08;;;;;;;1.25;1.13;;;;;;;;;;4919785;29;20226;-84
2021/08/09 04:47:35;;;;;;;1.48;1.00;;;;;;;;;;4919545;29;20190;-84
2021/08/09 04:50:03;;;;;;;0.80;0.80;;;;;;;;;;4919201;29;20198;-84
2021/08/09 04:52:32;;;;;;;1.77;1.70;;;;;;;;;;4919663;29;20194;-83
2021/08/09 04:54:59;;;;;;;1.30;1.20;;;;;;;;;;4921191;29;20232;-84
2021/08/09 04:57:27;;;;;;;1.10;1.00;;;;;;;;;;4920417;29;20218;-83
2021/08/09 04:59:54;;;;;;;1.45;1.20;;;;;;;;;;4919228;29;20186;-84
2021/08/09 05:02:21;;;;;;;1.60;1.05;;;;;;;;;;4919283;29;20195;-84
2021/08/09 05:04:49;;;;;;;2.22;1.05;;;;;;;;;;4917613;29;20226;-82
2021/08/09 05:07:16;;;;;;;1.05;0.95;;;;;;;;;;4918430;29;20183;-83
2021/08/09 05:09:45;;;;;;;1.10;1.10;;;;;;;;;;4918583;29;20217;-82
2021/08/09 05:12:12;;;;;;;1.08;1.08;;;;;;;;;;4918551;29;20198;-82
2021/08/09 05:14:40;;;;;;;0.88;0.88;;;;;;;;;;4917862;29;20226;-82
2021/08/09 05:17:08;;;;;;;2.55;1.60;;;;;;;;;;4917844;29;20206;-82
2021/08/09 05:19:36;;;;;;;0.98;0.98;;;;;;;;;;4918026;29;20206;-82
2021/08/09 05:22:04;;;;;;;1.17;1.08;;;;;;;;;;4918619;29;20257;-82
2021/08/09 05:24:32;;;;;;;1.40;1.27;;;;;;;;;;4917903;29;20966;-82
2021/08/09 05:27:00;;;;;;;1.92;1.42;;;;;;;;;;4917896;29;20210;-82
2021/08/09 05:29:28;;;;;;;1.23;0.90;;;;;;;;;;4917572;29;20230;-82
2021/08/09 05:31:55;;;;;;;0.85;0.85;;;;;;;;;;4918169;29;20197;-82
2021/08/09 05:34:23;;;;;;;0.95;0.90;;;;;;;;;;4917533;29;20246;-82
2021/08/09 05:36:50;;;;;;;1.40;1.30;;;;;;;;;;4918497;29;20198;-82
2021/08/09 05:39:18;;;;;;;1.27;1.10;;;;;;;;;;4917571;29;20213;-83
2021/08/09 05:41:45;;;;;;;1.60;1.27;;;;;;;;;;4917119;29;20334;-83
2021/08/09 05:44:14;;;;;;;1.33;1.17;;;;;;;;;;4918120;29;20721;-82
2021/08/09 05:46:42;;;;;;;1.45;1.33;;;;;;;;;;4918697;29;20195;-83
2021/08/09 05:49:10;;;;;;;1.55;1.45;;;;;;;;;;4917291;29;20736;-83
2021/08/09 05:51:40;;;;;;;2.08;1.35;;;;;;;;;;4915920;29;20191;-82
2021/08/09 05:54:08;;;;;;;1.35;1.20;;;;;;;;;;4916071;29;20237;-82
2021/08/09 05:56:37;;;;;;;1.33;1.23;;;;;;;;;;4916075;29;20225;-83
2021/08/09 05:59:04;;;;;;;1.20;1.20;;;;;;;;;;4914610;29;20195;-83
2021/08/09 06:01:33;;;;;;;1.20;1.13;;;;;;;;;;4915968;29;20236;-84
2021/08/09 06:04:01;;;;;;;1.05;1.02;;;;;;;;;;4915509;29;20218;-83
2021/08/09 06:06:28;;;;;;;1.92;1.40;;;;;;;;;;4916547;29;20197;-82
2021/08/09 06:08:56;;;;;;;1.20;1.10;;;;;;;;;;4916211;29;20214;-83
2021/08/09 06:11:23;;;;;;;1.60;1.15;;;;;;;;;;4915781;29;20693;-83
2021/08/09 06:13:51;;;;;;;1.33;1.10;;;;;;;;;;4916529;29;20248;-82
2021/08/09 06:16:19;;;;;;;2.38;1.55;;;;;;;;;;4915315;29;20669;-82
2021/08/09 06:18:49;;;;;;;1.15;1.00;;;;;;;;;;4913008;29;20207;-82
2021/08/09 06:21:17;;;;;;;0.90;0.90;;;;;;;;;;4897071;29;20203;-82
2021/08/09 06:23:44;;;;;;;1.58;1.48;;;;;;;;;;4896680;29;20227;-83
2021/08/09 06:26:12;;;;;;;3.13;1.15;;;;;;;;;;4896882;29;20203;-83
2021/08/09 06:28:39;;;;;;;1.30;1.20;;;;;;;;;;4897681;29;20207;-83
2021/08/09 06:31:07;;;;;;;1.73;1.25;;;;;;;;;;4899336;29;20645;-82
2021/08/09 06:33:34;;;;;;;1.10;1.10;;;;;;;;;;4899389;29;20242;-83
2021/08/09 06:36:03;;;;;;;0.98;0.98;;;;;;;;;;4900309;29;20195;-82
2021/08/09 06:38:30;;;;;;;1.10;1.10;;;;;;;;;;4900695;29;20187;-83
2021/08/09 06:40:58;;;;;;;1.83;1.40;;;;;;;;;;4900499;29;20582;-83
2021/08/09 06:43:25;;;;;;;1.00;1.00;;;;;;;;;;4900199;29;20223;-82
2021/08/09 06:45:53;;;;;;;0.90;0.90;;;;;;;;;;4900218;29;20207;-83
2021/08/09 06:48:20;;;;;;;0.93;0.90;;;;;;;;;;4899758;29;20201;-83
2021/08/09 06:50:48;;;;;;;1.17;1.08;;;;;;;;;;4899610;29;20207;-82
2021/08/09 06:53:18;;;;;;;1.35;1.02;;;;;;;;;;4899691;29;20586;-82
2021/08/09 06:55:45;;;;;;;3.63;1.70;;;;;;;;;;4903428;29;20195;-82
2021/08/09 06:58:14;;;;;;;1.30;1.00;;;;;;;;;;4915326;29;20209;-83
2021/08/09 07:00:41;;;;;;;1.75;1.65;;;;;;;;;;4918108;29;20194;-83
2021/08/09 07:03:09;;;;;;;1.00;1.00;;;;;;;;;;4905022;29;20195;-83
2021/08/09 07:05:44;;;;;;;0.80;0.80;;;;;;;;;;4902466;29;20217;-83
2021/08/09 07:08:12;;;;;;;1.52;1.42;;;;;;;;;;4919000;29;20186;-83
2021/08/09 07:10:43;;;;;;;1.38;1.00;;;;;;;;;;4919103;29;20214;-83
2021/08/09 07:13:11;;;;;;;3.85;2.22;;;;;;;;;;4918614;29;21014;-82
2021/08/09 07:15:38;;;;;;;2.40;0.90;;;;;;;;;;4918636;29;20202;-82
2021/08/09 07:18:06;;;;;;;0.93;0.93;;;;;;;;;;4917565;29;20202;-83
2021/08/09 07:20:33;;;;;;;2.22;1.27;;;;;;;;;;4918677;29;20202;-82
2021/08/09 07:23:01;;;;;;;1.20;1.10;;;;;;;;;;4918186;29;20202;-83
2021/08/09 07:25:29;;;;;;;1.65;1.17;;;;;;;;;;4918540;29;20189;-83
2021/08/09 07:27:58;;;;;;;1.80;1.10;;;;;;;;;;4918481;29;20227;-83
2021/08/09 07:30:25;;;;;;;0.90;0.90;;;;;;;;;;4916733;29;20681;-82
2021/08/09 07:32:56;;;;;;;1.13;1.08;;;;;;;;;;4918138;29;20203;-82
2021/08/09 07:35:24;;;;;;;0.90;0.90;;;;;;;;;;4918786;29;20237;-84
2021/08/09 07:37:52;;;;;;;1.25;1.10;;;;;;;;;;4917503;29;20203;-82
2021/08/09 07:40:20;;;;;;;1.88;1.10;;;;;;;;;;4917341;29;20193;-83
2021/08/09 07:42:48;;;;;;;2.75;1.30;;;;;;;;;;4917522;29;20201;-83
2021/08/09 07:45:17;;;;;;;1.55;1.35;;;;;;;;;;4917310;29;20238;-83
2021/08/09 07:47:44;;;;;;;1.20;1.10;;;;;;;;;;4917574;29;20194;-83
2021/08/09 07:50:12;;;;;;;1.52;0.95;;;;;;;;;;4917474;29;20206;-84
2021/08/09 07:52:39;;;;;;;2.08;1.20;;;;;;;;;;4917845;29;20190;-83
2021/08/09 07:55:07;;;;;;;1.00;1.00;;;;;;;;;;4917715;29;20226;-83
2021/08/09 07:57:35;;;;;;;1.13;1.13;;;;;;;;;;4917518;29;20225;-83
2021/08/09 08:00:02;;;;;;;0.80;0.80;;;;;;;;;;4917131;29;20191;-83
2021/08/09 08:02:31;;;;;;;1.23;1.10;;;;;;;;;;4916894;29;20944;-84
2021/08/09 08:04:58;;;;;;;1.83;1.52;;;;;;;;;;4917708;29;20238;-83
2021/08/09 08:07:26;;;;;;;1.10;1.00;;;;;;;;;;4916356;29;20179;-83
2021/08/09 08:09:53;;;;;;;0.88;0.88;;;;;;;;;;4917402;29;20221;-83
2021/08/09 08:12:22;;;;;;;1.05;1.05;;;;;;;;;;4907692;29;20192;-88
2021/08/09 08:14:49;;;;;;;1.95;1.25;;;;;;;;;;4898346;29;20618;-82
2021/08/09 08:17:17;;;;;;;2.05;1.00;;;;;;;;;;4898047;29;20650;-84
2021/08/09 08:19:46;;;;;;;1.83;1.35;;;;;;;;;;4916141;29;20206;-82
2021/08/09 08:22:13;;;;;;;0.93;0.90;;;;;;;;;;4916930;29;20206;-83
2021/08/09 08:24:41;;;;;;;1.30;1.08;;;;;;;;;;4911514;29;20655;-84
2021/08/09 08:27:08;;;;;;;1.75;1.02;;;;;;;;;;4916198;29;20294;-83
2021/08/09 08:29:36;;;;;;;0.98;0.98;;;;;;;;;;4916903;29;20195;-83
2021/08/09 08:32:04;;;;;;;2.17;2.00;;;;;;;;;;4916998;29;20217;-83
2021/08/09 08:34:32;;;;;;;1.45;1.30;;;;;;;;;;4916944;29;20242;-82
2021/08/09 08:37:00;;;;;;;1.35;1.27;;;;;;;;;;4916833;29;20210;-83
2021/08/09 08:39:29;;;;;;;1.13;1.02;;;;;;;;;;4916985;29;20199;-83
2021/08/09 08:41:57;;;;;;;1.45;1.35;;;;;;;;;;4916941;29;20183;-83
2021/08/09 08:44:25;;;;;;;1.83;1.20;;;;;;;;;;4916318;29;20954;-83
2021/08/09 08:46:54;;;;;;;1.85;1.40;;;;;;;;;;4916480;29;20187;-85
2021/08/09 08:49:23;;;;;;;0.93;0.93;;;;;;;;;;4916854;29;20612;-84
2021/08/09 08:51:51;;;;;;;1.52;1.20;;;;;;;;;;4915997;29;20619;-83
2021/08/09 08:54:20;;;;;;;1.38;1.00;;;;;;;;;;4915719;29;20222;-83
2021/08/09 08:56:48;;;;;;;0.95;0.95;;;;;;;;;;4915885;29;20217;-84
2021/08/09 08:59:18;;;;;;;1.25;1.17;;;;;;;;;;4916007;29;20203;-87
2021/08/09 09:01:47;;;;;;;2.00;1.20;;;;;;;;;;4916333;29;20191;-84
2021/08/09 09:04:29;;;;;;;1.27;1.20;;;;;;;;;;4916673;29;20226;-83
2021/08/09 09:07:00;;;;;;;1.23;1.13;;;;;;;;;;4916676;29;20214;-83
2021/08/09 09:09:31;;;;;;;1.23;0.95;;;;;;;;;;4916647;29;20254;-83
2021/08/09 09:12:00;;;;;;;0.93;0.93;;;;;;;;;;4916319;29;20587;-83
2021/08/09 09:14:30;;;;;;;1.45;1.25;;;;;;;;;;4915986;29;20772;-83
2021/08/09 09:16:59;;;;;;;1.20;1.10;;;;;;;;;;4916466;29;20190;-84
2021/08/09 09:19:38;;;;;;;1.00;1.00;;;;;;;;;;4915877;29;20206;-83
2021/08/09 09:22:08;;;;;;;1.10;1.08;;;;;;;;;;4916667;29;20183;-83
2021/08/09 09:24:38;;;;;;;1.77;1.40;;;;;;;;;;4916714;29;20226;-82
2021/08/09 09:27:09;;;;;;;1.42;1.33;;;;;;;;;;4916648;29;20588;-84
2021/08/09 09:29:40;;;;;;;11.43;1.40;;;;;;;;;;4916963;29;20217;-84
2021/08/09 09:32:16;;;;;;;1.08;1.08;;;;;;;;;;4918125;29;20206;-83
2021/08/09 09:34:50;;;;;;;2.17;1.30;;;;;;;;;;4930949;29;20677;-83
2021/08/09 09:37:28;;;;;;;1.92;1.30;;;;;;;;;;4935753;29;20273;-84
2021/08/09 09:40:06;;;;;;;2.63;1.38;;;;;;;;;;4896710;29;20219;-84
2021/08/09 09:42:36;;;;;;;2.50;2.00;;;;;;;;;;4897469;29;20195;-83
2021/08/09 09:45:21;;;;;;;1.50;1.40;;;;;;;;;;4897020;29;20592;-83
2021/08/09 09:48:03;;;;;;;1.30;1.15;;;;;;;;;;4897035;29;20203;-88
2021/08/09 09:50:32;;;;;;;1.27;1.13;;;;;;;;;;4897204;29;20191;-82
2021/08/09 09:53:13;;;;;;;1.75;1.45;;;;;;;;;;4896758;29;20704;-83
2021/08/09 09:55:42;;;;;;;1.20;1.10;;;;;;;;;;4897003;29;20214;-83
2021/08/09 09:58:10;;;;;;;1.25;1.15;;;;;;;;;;4897383;29;20191;-83
2021/08/09 10:00:39;;;;;;;2.60;1.25;;;;;;;;;;4896871;29;20536;-82
2021/08/09 10:03:06;;;;;;;2.03;1.10;;;;;;;;;;4898853;29;20638;-82
2021/08/09 10:05:35;;;;;;;3.30;1.10;;;;;;;;;;4900877;29;20191;-82
2021/08/09 10:08:04;;;;;;;1.30;1.30;;;;;;;;;;4900738;29;20187;-81
2021/08/09 10:10:32;;;;;;;1.77;1.10;;;;;;;;;;4900806;29;20192;-82
2021/08/09 10:13:01;;;;;;;1.42;1.33;;;;;;;;;;4900887;29;20226;-82
2021/08/09 10:15:29;;;;;;;1.48;1.20;;;;;;;;;;4902603;29;20294;-83
2021/08/09 10:17:57;;;;;;;1.20;1.10;;;;;;;;;;4901331;29;20207;-83
2021/08/09 10:20:25;;;;;;;0.90;0.90;;;;;;;;;;4901117;29;20298;-83
2021/08/09 10:23:02;;;;;;;1.10;1.08;;;;;;;;;;4900471;29;20215;-82
2021/08/09 10:25:49;;;;;;;1.35;1.00;;;;;;;;;;4899338;29;20546;-82
2021/08/09 10:28:18;;;;;;;1.25;1.02;;;;;;;;;;4899426;29;20237;-82
2021/08/09 10:30:46;;;;;;;1.23;1.13;;;;;;;;;;4909711;29;20217;-82
2021/08/09 10:33:15;;;;;;;2.10;1.90;;;;;;;;;;4906491;29;20222;-82
2021/08/09 10:36:01;;;;;;;1.67;1.15;;;;;;;;;;4905941;29;20207;-84
2021/08/09 10:38:39;;;;;;;1.23;1.10;;;;;;;;;;4900098;29;20227;-82
2021/08/09 10:41:39;;;;;;;1.27;1.27;;;;;;;;;;4912778;29;20206;-83
2021/08/09 10:44:25;;;;;;;1.42;1.20;;;;;;;;;;4899733;29;20286;-82
2021/08/09 10:46:56;;;;;;;2.03;1.20;;;;;;;;;;4900152;29;20202;-84
2021/08/09 10:49:57;;;;;;;1.60;1.17;;;;;;;;;;4899733;29;20771;-83
2021/08/09 10:52:36;;;;;;;4.35;1.33;;;;;;;;;;4899569;29;20649;-82
2021/08/09 10:55:46;;;;;;;1.85;1.45;;;;;;;;;;4899797;29;20234;-82
2021/08/09 10:58:57;;;;;;;1.40;1.30;;;;;;;;;;4897335;29;20213;-82
2021/08/09 11:01:27;;;;;;;2.20;1.23;;;;;;;;;;4859964;29;20208;-83
2021/08/09 11:04:25;;;;;;;1.80;1.65;;;;;;;;;;4894010;29;20314;-84
2021/08/09 11:06:53;;;;;;;1.75;1.10;;;;;;;;;;4859665;29;20208;-82
2021/08/09 11:09:47;;;;;;;1.17;1.08;;;;;;;;;;4890247;29;20215;-82
2021/08/09 11:12:23;;;;;;;1.27;0.95;;;;;;;;;;4899123;29;20217;-82
2021/08/09 11:15:19;;;;;;;1.45;1.35;;;;;;;;;;4911130;29;20218;-83
2021/08/09 11:17:55;;;;;;;1.33;1.23;;;;;;;;;;4918389;29;20194;-83
2021/08/09 11:20:25;;;;;;;0.82;0.82;;;;;;;;;;4910276;29;20202;-82
2021/08/09 11:23:15;;;;;;;0.90;0.70;;;;;;;;;;4899660;29;20194;-82
2021/08/09 11:25:46;;;;;;;1.00;0.90;;;;;;;;;;4896182;29;20705;-81
2021/08/09 11:28:16;;;;;;;1.30;1.20;;;;;;;;;;4899201;29;20188;-81
2021/08/09 11:30:48;;;;;;;1.80;0.93;;;;;;;;;;4899094;29;20197;-81
2021/08/09 11:33:27;;;;;;;0.90;0.90;;;;;;;;;;4898725;29;20212;-81
2021/08/09 11:35:55;;;;;;;0.98;0.98;;;;;;;;;;4912353;29;20242;-82
2021/08/09 11:38:23;;;;;;;0.90;0.90;;;;;;;;;;4917536;29;20195;-81
2021/08/09 11:40:53;;;;;;;1.10;0.70;;;;;;;;;;4917779;29;20197;-82
2021/08/09 11:43:27;;;;;;;0.60;0.60;;;;;;;;;;4917844;29;20312;-81
2021/08/09 11:45:56;;;;;;;0.88;0.80;;;;;;;;;;4917076;29;20665;-81
2021/08/09 11:48:30;;;;;;;2.13;0.80;;;;;;;;;;4918013;29;20286;-81
2021/08/09 11:51:01;;;;;;;1.60;1.33;;;;;;;;;;4917892;29;20190;-82
2021/08/09 11:53:28;;;;;;;1.00;0.73;;;;;;;;;;4917457;29;20234;-82
2021/08/09 11:56:11;;;;;;;1.15;1.05;;;;;;;;;;4917984;29;20202;-82
2021/08/09 11:58:39;;;;;;;1.00;1.00;;;;;;;;;;4918018;29;20187;-82
2021/08/09 12:01:07;;;;;;;0.90;0.85;;;;;;;;;;4917706;29;20213;-82
2021/08/09 12:03:36;;;;;;;1.13;1.00;;;;;;;;;;4914794;29;20230;-82
2021/08/09 12:06:24;;;;;;;0.70;0.70;;;;;;;;;;4904481;29;20289;-83
2021/08/09 12:08:56;;;;;;;0.80;0.68;;;;;;;;;;4918367;29;20209;-82
2021/08/09 12:11:28;;;;;;;0.77;0.77;;;;;;;;;;4917842;29;20187;-81
2021/08/09 12:14:30;;;;;;;0.70;0.70;;;;;;;;;;4916898;29;20708;-82
2021/08/09 12:16:59;;;;;;;1.20;1.10;;;;;;;;;;4917014;29;20206;-83
2021/08/09 12:19:39;;;;;;;1.35;0.80;;;;;;;;;;4915989;29;20195;-81
2021/08/09 12:22:13;;;;;;;1.27;1.00;;;;;;;;;;4916599;29;20234;-81
2021/08/09 12:24:41;;;;;;;0.90;0.88;;;;;;;;;;4916196;29;20225;-81
2021/08/09 12:27:20;;;;;;;1.20;0.98;;;;;;;;;;4916873;29;20245;-81
2021/08/09 12:30:04;;;;;;;1.55;1.45;;;;;;;;;;4916921;29;20205;-82
2021/08/09 12:32:31;;;;;;;1.15;1.08;;;;;;;;;;4917201;29;20263;-81
2021/08/09 12:35:01;;;;;;;3.40;1.10;;;;;;;;;;4916231;29;20623;-81
2021/08/09 12:37:29;;;;;;;1.10;1.10;;;;;;;;;;4915439;29;20212;-81
2021/08/09 12:40:10;;;;;;;0.98;0.98;;;;;;;;;;4916930;29;20572;-82
2021/08/09 12:42:38;;;;;;;0.70;0.70;;;;;;;;;;4916477;29;20190;-82
2021/08/09 12:45:07;;;;;;;0.73;0.73;;;;;;;;;;4913369;29;20237;-82
2021/08/09 12:47:35;;;;;;;1.10;1.00;;;;;;;;;;4916275;29;20205;-83
2021/08/09 12:50:04;;;;;;;1.52;1.08;;;;;;;;;;4901845;29;20199;-88
2021/08/09 12:52:31;;;;;;;0.80;0.80;;;;;;;;;;4896845;29;20253;-81
2021/08/09 12:55:00;;;;;;;1.33;1.23;;;;;;;;;;4902742;29;20312;-82
2021/08/09 12:57:27;;;;;;;1.50;1.33;;;;;;;;;;4916159;29;20217;-83
2021/08/09 12:59:55;;;;;;;2.90;1.40;;;;;;;;;;4918589;29;20314;-83
2021/08/09 13:02:22;;;;;;;2.70;1.30;;;;;;;;;;4927842;29;20214;-84
2021/08/09 13:04:50;;;;;;;0.95;0.85;;;;;;;;;;4916397;29;20226;-82
2021/08/09 13:07:19;;;;;;;1.30;1.10;;;;;;;;;;4914308;29;20289;-83
2021/08/09 13:09:46;;;;;;;1.88;1.08;;;;;;;;;;4916357;29;20242;-83
2021/08/09 13:12:14;;;;;;;1.25;1.08;;;;;;;;;;4916437;29;20209;-83
2021/08/09 13:14:41;;;;;;;1.63;1.23;;;;;;;;;;4915880;29;20256;-83
2021/08/09 13:17:09;;;;;;;0.95;0.95;;;;;;;;;;4916350;29;20186;-84
2021/08/09 13:19:36;;;;;;;1.10;1.02;;;;;;;;;;4916078;29;20214;-83
2021/08/09 13:22:04;;;;;;;1.10;1.08;;;;;;;;;;4916157;29;20649;-83
2021/08/09 13:24:33;;;;;;;1.30;1.10;;;;;;;;;;4915538;29;20731;-85
2021/08/09 13:27:00;;;;;;;1.08;1.08;;;;;;;;;;4915843;29;20186;-85
2021/08/09 13:29:28;;;;;;;1.30;1.20;;;;;;;;;;4914463;29;20210;-84
2021/08/09 13:31:55;;;;;;;1.23;1.13;;;;;;;;;;4897077;29;20210;-84
2021/08/09 13:34:22;;;;;;;1.45;1.35;;;;;;;;;;4897047;29;20755;-85
2021/08/09 13:36:50;;;;;;;2.08;1.83;;;;;;;;;;4915992;29;20205;-84
2021/08/09 13:39:17;;;;;;;1.30;1.20;;;;;;;;;;4919897;29;20969;-83
2021/08/09 13:41:46;;;;;;;0.98;0.90;;;;;;;;;;4919640;29;20191;-83
2021/08/09 13:44:14;;;;;;;1.65;1.55;;;;;;;;;;4918431;29;20225;-83
2021/08/09 13:46:41;;;;;;;2.78;1.42;;;;;;;;;;4919590;29;20217;-84
2021/08/09 13:49:09;;;;;;;1.38;1.00;;;;;;;;;;4919933;29;20197;-83
2021/08/09 13:51:36;;;;;;;1.20;1.10;;;;;;;;;;4919580;29;20221;-84
2021/08/09 13:54:04;;;;;;;1.70;1.20;;;;;;;;;;4919763;29;20230;-84
2021/08/09 13:56:31;;;;;;;1.38;1.27;;;;;;;;;;4919683;29;20195;-83
2021/08/09 13:59:03;;;;;;;1.48;1.38;;;;;;;;;;4919745;29;20201;-83
2021/08/09 14:01:37;;;;;;;1.00;1.00;;;;;;;;;;4899043;29;20199;-83
2021/08/09 14:04:05;;;;;;;0.90;0.90;;;;;;;;;;4898617;29;20223;-83
2021/08/09 14:06:32;;;;;;;1.50;1.40;;;;;;;;;;4915924;29;20206;-83
2021/08/09 14:09:00;;;;;;;0.93;0.93;;;;;;;;;;4917530;29;20201;-85
2021/08/09 14:11:27;;;;;;;1.30;1.10;;;;;;;;;;4917373;29;20766;-83
2021/08/09 14:13:54;;;;;;;0.90;0.90;;;;;;;;;;4917315;29;20241;-84
2021/08/09 14:16:23;;;;;;;1.20;1.15;;;;;;;;;;4918601;29;20203;-83
2021/08/09 14:18:52;;;;;;;1.20;1.10;;;;;;;;;;4918846;29;20191;-84
2021/08/09 14:21:19;;;;;;;1.23;1.08;;;;;;;;;;4918856;29;20190;-84
2021/08/09 14:23:47;;;;;;;1.20;1.10;;;;;;;;;;4918479;29;20226;-84
2021/08/09 14:26:14;;;;;;;1.63;1.00;;;;;;;;;;4918346;29;20720;-83
2021/08/09 14:28:42;;;;;;;1.27;1.20;;;;;;;;;;4918706;29;20205;-83
2021/08/09 14:31:09;;;;;;;1.30;1.20;;;;;;;;;;4918346;29;20218;-83
2021/08/09 14:33:39;;;;;;;1.15;1.05;;;;;;;;;;4923361;29;20237;-83
2021/08/09 14:36:07;;;;;;;1.20;1.10;;;;;;;;;;4923351;29;20799;-83
2021/08/09 14:38:35;;;;;;;1.10;1.10;;;;;;;;;;4918499;29;20187;-82
2021/08/09 14:41:02;;;;;;;1.00;1.00;;;;;;;;;;4906037;29;20199;-84
2021/08/09 14:43:29;;;;;;;1.38;1.08;;;;;;;;;;4897246;29;20541;-83
2021/08/09 14:45:57;;;;;;;3.00;2.08;;;;;;;;;;4901146;29;20211;-84
2021/08/09 14:48:24;;;;;;;1.38;1.27;;;;;;;;;;4896811;29;20222;-83
2021/08/09 14:50:53;;;;;;;1.23;1.10;;;;;;;;;;4897583;29;20211;-84
2021/08/09 14:53:20;;;;;;;1.35;0.80;;;;;;;;;;4897858;29;20235;-84
2021/08/09 14:55:48;;;;;;;1.08;1.08;;;;;;;;;;4920492;29;20221;-83
2021/08/09 14:58:15;;;;;;;1.13;1.10;;;;;;;;;;4923739;29;20209;-83
2021/08/09 15:00:44;;;;;;;0.90;0.90;;;;;;;;;;4916772;29;20218;-83
2021/08/09 15:03:14;;;;;;;2.22;1.58;;;;;;;;;;4916223;29;20326;-84